createdAt,value
2023-01-28T00:00:09.654Z,3.15
2023-01-28T00:02:37.095Z,3.11
2023-01-28T00:05:04.993Z,3.13
2023-01-28T00:07:32.306Z,3.15
2023-01-28T00:09:59.634Z,3.26
2023-01-28T00:12:27.178Z,3.32
2023-01-28T00:14:54.504Z,3.26
2023-01-28T00:17:21.896Z,3.28
2023-01-28T00:19:49.322Z,3.27
2023-01-28T00:22:16.695Z,3.26
2023-01-28T00:24:44.648Z,3.39
2023-01-28T00:27:12.754Z,3.38
2023-01-28T00:29:41.235Z,3.39
2023-01-28T00:32:08.628Z,3.37
2023-01-28T00:34:36.062Z,3.40
2023-01-28T00:37:07.479Z,3.47
2023-01-28T00:39:34.948Z,3.49
2023-01-28T00:42:02.257Z,3.56
2023-01-28T00:44:29.638Z,3.56
2023-01-28T00:46:57.244Z,3.55
2023-01-28T00:49:43.061Z,3.55
2023-01-28T00:52:10.358Z,3.52
2023-01-28T00:54:37.959Z,3.51
2023-01-28T00:57:05.300Z,3.55
2023-01-28T00:59:32.649Z,3.57
2023-01-28T01:02:12.314Z,3.59
2023-01-28T01:04:40.985Z,3.58
2023-01-28T01:07:08.335Z,3.57
2023-01-28T01:09:35.689Z,3.61
2023-01-28T01:12:04.007Z,3.60
2023-01-28T01:14:31.508Z,3.64
2023-01-28T01:16:58.856Z,3.60
2023-01-28T01:19:28.349Z,3.67
2023-01-28T01:21:57.046Z,3.77
2023-01-28T01:24:24.456Z,3.75
2023-01-28T01:26:52.195Z,3.72
2023-01-28T01:29:19.483Z,3.66
2023-01-28T01:31:46.836Z,3.66
2023-01-28T01:34:14.872Z,3.64
2023-01-28T01:36:44.023Z,3.60
2023-01-28T01:39:14.546Z,3.61
2023-01-28T01:41:41.899Z,3.48
2023-01-28T01:44:47.150Z,3.45
2023-01-28T01:47:16.876Z,3.35
2023-01-28T01:49:44.832Z,3.40
2023-01-28T01:52:19.596Z,3.40
2023-01-28T01:54:50.628Z,3.41
2023-01-28T01:57:24.403Z,3.49
2023-01-28T01:59:52.191Z,3.51
2023-01-28T02:02:19.738Z,3.62
2023-01-28T02:04:47.109Z,3.57
2023-01-28T02:07:19.537Z,3.54
2023-01-28T02:09:47.186Z,3.53
2023-01-28T02:12:20.729Z,3.48
2023-01-28T02:15:10.118Z,3.47
2023-01-28T02:17:38.439Z,3.51
2023-01-28T02:20:12.708Z,3.51
2023-01-28T02:23:09.159Z,3.53
2023-01-28T02:26:04.898Z,3.55
2023-01-28T02:28:42.175Z,3.61
2023-01-28T02:31:22.200Z,3.65
2023-01-28T02:34:19.734Z,3.66
2023-01-28T02:36:51.351Z,3.63
2023-01-28T02:39:27.098Z,3.62
2023-01-28T02:42:02.066Z,3.59
2023-01-28T02:44:29.539Z,3.51
2023-01-28T02:47:15.519Z,3.46
2023-01-28T02:49:50.004Z,3.42
2023-01-28T02:52:46.431Z,3.39
2023-01-28T02:55:32.555Z,3.35
2023-01-28T02:58:11.796Z,3.21
2023-01-28T03:01:17.009Z,3.21
2023-01-28T03:04:02.948Z,3.25
2023-01-28T03:06:39.727Z,3.22
2023-01-28T03:09:24.225Z,3.30
2023-01-28T03:12:51.237Z,3.36
2023-01-28T03:15:44.630Z,3.16
2023-01-28T03:18:34.816Z,3.08
2023-01-28T03:21:33.469Z,3.17
2023-01-28T03:24:51.059Z,3.05
2023-01-28T03:27:46.211Z,2.98
2023-01-28T03:30:46.786Z,3.02
2023-01-28T03:33:43.840Z,2.99
2023-01-28T03:36:30.402Z,3.08
2023-01-28T03:38:58.646Z,2.98
2023-01-28T03:41:27.039Z,2.98
2023-01-28T03:43:56.547Z,3.19
2023-01-28T03:46:24.342Z,3.35
2023-01-28T03:48:52.012Z,3.20
2023-01-28T03:51:19.858Z,3.19
2023-01-28T03:53:47.812Z,3.02
2023-01-28T03:56:18.495Z,3.12
2023-01-28T03:58:52.974Z,3.20
2023-01-28T04:01:21.378Z,3.08
2023-01-28T04:03:49.341Z,3.02
2023-01-28T04:06:23.144Z,3.00
2023-01-28T04:08:53.572Z,2.94
2023-01-28T04:11:32.200Z,2.98
2023-01-28T04:14:02.744Z,2.99
2023-01-28T04:16:42.786Z,2.97
2023-01-28T04:19:12.380Z,2.98
2023-01-28T04:21:40.121Z,2.83
2023-01-28T04:24:08.031Z,2.86
2023-01-28T04:26:36.279Z,2.95
2023-01-28T04:29:04.993Z,2.94
2023-01-28T04:31:34.988Z,2.90
2023-01-28T04:34:21.144Z,2.91
2023-01-28T04:36:54.861Z,2.93
2023-01-28T04:39:42.554Z,2.88
2023-01-28T04:42:39.557Z,2.88
2023-01-28T04:45:12.044Z,2.91
2023-01-28T04:47:59.837Z,3.04
2023-01-28T04:50:45.846Z,3.11
2023-01-28T04:53:27.298Z,2.95
2023-01-28T04:55:58.892Z,3.09
2023-01-28T04:58:28.812Z,2.98
2023-01-28T05:01:01.121Z,2.89
2023-01-28T05:03:28.934Z,2.69
2023-01-28T05:05:56.541Z,2.64
2023-01-28T05:08:39.827Z,2.70
2023-01-28T05:11:07.514Z,2.91
2023-01-28T05:13:35.193Z,3.00
2023-01-28T05:16:04.385Z,2.93
2023-01-28T05:18:31.936Z,2.89
2023-01-28T05:21:09.811Z,2.89
2023-01-28T05:23:39.896Z,2.92
2023-01-28T05:26:07.388Z,2.74
2023-01-28T05:28:53.531Z,2.78
2023-01-28T05:31:21.062Z,2.82
2023-01-28T05:33:48.712Z,2.84
2023-01-28T05:36:17.169Z,2.72
2023-01-28T05:38:44.756Z,2.59
2023-01-28T05:41:12.769Z,2.52
2023-01-28T05:43:41.556Z,2.44
2023-01-28T05:46:20.964Z,2.34
2023-01-28T05:49:18.712Z,2.30
2023-01-28T05:51:56.535Z,2.23
2023-01-28T05:54:25.133Z,2.06
2023-01-28T05:56:52.747Z,1.96
2023-01-28T05:59:20.244Z,2.01
2023-01-28T06:01:49.990Z,2.02
2023-01-28T06:04:19.097Z,2.08
2023-01-28T06:06:47.760Z,2.01
2023-01-28T06:09:16.057Z,2.03
2023-01-28T06:11:44.594Z,2.00
2023-01-28T06:14:12.463Z,2.02
2023-01-28T06:16:58.540Z,2.13
2023-01-28T06:19:46.294Z,1.92
2023-01-28T06:22:13.788Z,1.96
2023-01-28T06:24:41.420Z,1.84
2023-01-28T06:27:08.913Z,1.96
2023-01-28T06:29:36.532Z,1.81
2023-01-28T06:32:04.369Z,1.84
2023-01-28T06:34:32.424Z,1.85
2023-01-28T06:36:59.807Z,1.87
2023-01-28T06:39:29.338Z,1.91
2023-01-28T06:41:56.789Z,1.97
2023-01-28T06:44:24.680Z,1.94
2023-01-28T06:46:52.153Z,1.98
2023-01-28T06:49:20.690Z,2.03
2023-01-28T06:51:48.442Z,2.05
2023-01-28T06:54:16.407Z,1.93
2023-01-28T06:56:44.344Z,2.04
2023-01-28T06:59:11.952Z,2.05
2023-01-28T07:01:39.394Z,2.02
2023-01-28T07:04:07.285Z,2.05
2023-01-28T07:06:34.753Z,2.13
2023-01-28T07:09:02.356Z,2.20
2023-01-28T07:11:29.831Z,2.21
2023-01-28T07:13:57.304Z,2.36
2023-01-28T07:16:24.940Z,2.54
2023-01-28T07:18:52.504Z,2.60
2023-01-28T07:21:19.916Z,2.63
2023-01-28T07:23:47.387Z,2.76
2023-01-28T07:26:15.687Z,3.16
2023-01-28T07:28:43.079Z,3.76
2023-01-28T07:31:10.717Z,4.49
2023-01-28T07:33:38.282Z,5.64
2023-01-28T07:36:06.179Z,6.10
2023-01-28T07:38:33.817Z,6.46
2023-01-28T07:41:01.169Z,6.60
2023-01-28T07:43:28.484Z,6.91
2023-01-28T07:45:55.761Z,6.66
2023-01-28T07:48:23.140Z,7.41
2023-01-28T07:50:51.850Z,7.62
2023-01-28T07:53:20.383Z,7.31
2023-01-28T07:55:47.691Z,7.01
2023-01-28T07:58:15.056Z,7.63
2023-01-28T08:00:42.523Z,7.44
2023-01-28T08:03:17.129Z,6.69
2023-01-28T08:05:47.028Z,6.34
2023-01-28T08:08:15.096Z,6.05
2023-01-28T08:10:44.047Z,6.42
2023-01-28T08:13:12.757Z,6.70
2023-01-28T08:15:40.976Z,6.85
2023-01-28T08:18:10.104Z,7.02
2023-01-28T08:20:37.550Z,7.29
2023-01-28T08:23:15.660Z,7.86
2023-01-28T08:25:43.925Z,8.40
2023-01-28T08:28:11.988Z,8.02
2023-01-28T08:30:39.974Z,7.88
2023-01-28T08:33:09.309Z,7.84
2023-01-28T08:35:37.218Z,7.87
2023-01-28T08:38:05.881Z,8.71
2023-01-28T08:40:34.613Z,7.72
2023-01-28T08:43:02.616Z,7.47
2023-01-28T08:45:30.582Z,7.07
2023-01-28T08:47:59.323Z,6.78
2023-01-28T08:50:29.691Z,6.34
2023-01-28T08:52:58.935Z,6.42
2023-01-28T08:55:27.568Z,6.26
2023-01-28T08:57:57.515Z,6.10
2023-01-28T09:00:25.970Z,5.93
2023-01-28T09:02:54.012Z,6.10
2023-01-28T09:05:21.634Z,6.86
2023-01-28T09:07:49.109Z,7.22
2023-01-28T09:10:17.118Z,7.82
2023-01-28T09:12:44.698Z,7.59
2023-01-28T09:15:12.564Z,9.19
2023-01-28T09:17:40.590Z,9.48
2023-01-28T09:20:08.828Z,10.12
2023-01-28T09:22:36.449Z,10.09
2023-01-28T09:25:04.134Z,10.39
2023-01-28T09:27:31.943Z,11.33
2023-01-28T09:30:01.755Z,11.66
2023-01-28T09:32:29.178Z,12.50
2023-01-28T09:34:56.640Z,12.46
2023-01-28T09:37:24.237Z,11.66
2023-01-28T09:39:51.595Z,11.59
2023-01-28T09:42:39.581Z,11.55
2023-01-28T09:45:16.352Z,12.55
2023-01-28T09:47:53.759Z,13.29
2023-01-28T09:50:31.728Z,13.23
2023-01-28T09:53:27.715Z,13.01
2023-01-28T09:56:03.982Z,12.84
2023-01-28T09:58:31.905Z,12.85
2023-01-28T10:01:05.324Z,12.07
2023-01-28T10:03:50.170Z,10.89
2023-01-28T10:06:24.443Z,10.48
2023-01-28T10:09:10.447Z,11.57
2023-01-28T10:12:28.102Z,10.61
2023-01-28T10:15:04.445Z,10.03
2023-01-28T10:17:47.670Z,9.30
2023-01-28T10:20:36.368Z,9.28
2023-01-28T10:23:17.036Z,8.99
2023-01-28T10:25:48.372Z,9.49
2023-01-28T10:28:20.023Z,9.89
2023-01-28T10:30:48.291Z,10.09
2023-01-28T10:33:28.061Z,10.16
2023-01-28T10:35:56.652Z,10.13
2023-01-28T10:38:25.865Z,10.10
2023-01-28T10:40:58.362Z,9.97
2023-01-28T10:43:29.868Z,9.80
2023-01-28T10:46:23.921Z,9.68
2023-01-28T10:48:56.983Z,9.43
2023-01-28T10:51:36.989Z,9.69
2023-01-28T10:54:19.322Z,9.50
2023-01-28T10:56:48.364Z,9.41
2023-01-28T10:59:36.927Z,9.23
2023-01-28T11:02:20.051Z,9.27
2023-01-28T11:04:47.407Z,9.51
2023-01-28T11:07:20.440Z,9.47
2023-01-28T11:09:50.674Z,9.28
2023-01-28T11:12:27.594Z,9.20
2023-01-28T11:15:03.289Z,9.29
2023-01-28T11:17:36.012Z,9.57
2023-01-28T11:20:18.542Z,9.56
2023-01-28T11:22:46.496Z,9.66
2023-01-28T11:25:20.104Z,9.41
2023-01-28T11:27:52.724Z,9.39
2023-01-28T11:30:35.895Z,9.37
2023-01-28T11:33:06.892Z,9.33
2023-01-28T11:35:34.423Z,9.69
2023-01-28T11:38:01.853Z,9.79
2023-01-28T11:40:29.656Z,9.78
2023-01-28T11:42:58.248Z,9.62
2023-01-28T11:45:44.239Z,9.78
2023-01-28T11:48:35.151Z,9.56
2023-01-28T11:51:55.338Z,9.29
2023-01-28T11:54:28.821Z,9.36
2023-01-28T11:57:26.740Z,9.21
2023-01-28T12:00:12.248Z,9.51
2023-01-28T12:02:51.297Z,9.68
2023-01-28T12:05:49.747Z,9.73
2023-01-28T12:08:34.608Z,9.66
2023-01-28T12:11:10.947Z,9.59
2023-01-28T12:14:14.759Z,9.95
2023-01-28T12:17:11.094Z,10.19
2023-01-28T12:19:41.211Z,10.36
2023-01-28T12:22:32.891Z,10.14
2023-01-28T12:25:33.448Z,9.91
2023-01-28T12:28:22.119Z,9.73
2023-01-28T12:31:48.541Z,9.69
2023-01-28T12:34:34.515Z,10.00
2023-01-28T12:37:17.184Z,10.20
2023-01-28T12:39:50.576Z,10.22
2023-01-28T12:42:36.110Z,10.19
2023-01-28T12:45:24.663Z,9.71
2023-01-28T12:48:01.639Z,9.52
2023-01-28T12:50:40.000Z,9.64
2023-01-28T12:53:26.853Z,9.46
2023-01-28T12:56:09.263Z,9.52
2023-01-28T12:59:06.231Z,9.49
2023-01-28T13:02:12.244Z,9.74
2023-01-28T13:04:57.155Z,9.86
2023-01-28T13:07:57.368Z,10.14
2023-01-28T13:10:29.164Z,10.31
2023-01-28T13:12:59.172Z,10.20
2023-01-28T13:15:26.674Z,10.12
2023-01-28T13:18:35.951Z,10.24
2023-01-28T13:21:06.111Z,10.21
2023-01-28T13:23:38.714Z,9.85
2023-01-28T13:26:18.480Z,9.70
2023-01-28T13:28:47.434Z,9.74
2023-01-28T13:31:21.217Z,9.78
2023-01-28T13:34:02.711Z,9.93
2023-01-28T13:36:38.187Z,9.81
2023-01-28T13:39:14.290Z,9.77
2023-01-28T13:41:50.580Z,9.96
2023-01-28T13:44:33.004Z,9.77
2023-01-28T13:47:21.889Z,9.50
2023-01-28T13:49:55.785Z,9.35
2023-01-28T13:52:27.591Z,9.13
2023-01-28T13:55:42.891Z,9.23
2023-01-28T13:58:36.820Z,9.13
2023-01-28T14:01:04.121Z,9.25
2023-01-28T14:03:46.413Z,9.00
2023-01-28T14:06:38.251Z,8.96
2023-01-28T14:09:20.284Z,9.06
2023-01-28T14:11:53.872Z,9.05
2023-01-28T14:14:27.342Z,8.88
2023-01-28T14:17:07.401Z,8.75
2023-01-28T14:19:38.574Z,8.75
2023-01-28T14:22:10.686Z,8.78
2023-01-28T14:24:39.699Z,8.96
2023-01-28T14:27:32.727Z,8.87
2023-01-28T14:30:29.973Z,8.87
2023-01-28T14:32:57.864Z,8.95
2023-01-28T14:35:34.187Z,8.84
2023-01-28T14:38:09.284Z,8.87
2023-01-28T14:40:40.236Z,8.87
2023-01-28T14:43:13.716Z,8.81
2023-01-28T14:45:59.883Z,8.70
2023-01-28T14:48:49.431Z,8.66
2023-01-28T14:51:19.658Z,8.58
2023-01-28T14:54:05.843Z,8.55
2023-01-28T14:57:08.597Z,8.48
2023-01-28T14:59:49.639Z,8.40
2023-01-28T15:02:23.916Z,8.52
2023-01-28T15:04:53.008Z,8.48
2023-01-28T15:07:27.064Z,8.58
2023-01-28T15:10:05.940Z,8.71
2023-01-28T15:12:38.995Z,8.64
2023-01-28T15:15:20.141Z,8.47
2023-01-28T15:17:48.882Z,8.30
2023-01-28T15:20:19.343Z,8.23
2023-01-28T15:22:47.023Z,8.25
2023-01-28T15:25:26.537Z,8.09
2023-01-28T15:27:58.877Z,8.09
2023-01-28T15:30:29.891Z,8.11
2023-01-28T15:33:03.630Z,8.00
2023-01-28T15:35:32.694Z,7.98
2023-01-28T15:38:00.119Z,7.97
2023-01-28T15:40:30.232Z,7.96
2023-01-28T15:42:58.951Z,8.01
2023-01-28T15:45:28.392Z,7.92
2023-01-28T15:48:05.712Z,7.98
2023-01-28T15:50:33.129Z,7.83
2023-01-28T15:53:00.877Z,7.66
2023-01-28T15:55:35.520Z,7.45
2023-01-28T15:58:30.305Z,7.32
2023-01-28T16:01:13.771Z,7.14
2023-01-28T16:03:44.653Z,6.99
2023-01-28T16:06:17.494Z,6.88
2023-01-28T16:08:51.823Z,6.84
2023-01-28T16:11:26.315Z,6.76
2023-01-28T16:13:54.453Z,6.66
2023-01-28T16:16:29.205Z,6.63
2023-01-28T16:18:56.665Z,6.54
2023-01-28T16:21:38.019Z,6.42
2023-01-28T16:24:23.869Z,6.37
2023-01-28T16:26:58.494Z,6.28
2023-01-28T16:29:27.708Z,6.22
2023-01-28T16:31:57.183Z,6.12
2023-01-28T16:34:27.289Z,6.11
2023-01-28T16:36:59.776Z,6.04
2023-01-28T16:39:27.270Z,6.01
2023-01-28T16:41:57.027Z,5.93
2023-01-28T16:44:24.438Z,5.88
2023-01-28T16:46:51.833Z,5.84
2023-01-28T16:49:19.182Z,5.86
2023-01-28T16:51:46.552Z,5.80
2023-01-28T16:54:16.607Z,5.83
2023-01-28T16:56:46.520Z,5.80
2023-01-28T16:59:16.318Z,5.78
2023-01-28T17:01:44.919Z,5.79
2023-01-28T17:04:13.262Z,5.76
2023-01-28T17:06:45.236Z,5.75
2023-01-28T17:09:13.995Z,5.79
2023-01-28T17:11:41.934Z,5.74
2023-01-28T17:14:11.018Z,5.73
2023-01-28T17:16:38.991Z,5.66
2023-01-28T17:19:06.450Z,5.66
2023-01-28T17:21:34.134Z,5.57
2023-01-28T17:24:02.021Z,5.54
2023-01-28T17:26:29.444Z,5.46
2023-01-28T17:28:57.052Z,5.42
2023-01-28T17:31:26.335Z,5.41
2023-01-28T17:33:55.412Z,5.36
2023-01-28T17:36:23.929Z,5.32
2023-01-28T17:38:51.957Z,5.30
2023-01-28T17:41:19.594Z,5.21
2023-01-28T17:43:55.180Z,5.14
2023-01-28T17:46:25.067Z,5.07
2023-01-28T17:48:52.917Z,5.07
2023-01-28T17:51:20.453Z,5.06
2023-01-28T17:53:52.812Z,5.03
2023-01-28T17:56:26.364Z,5.00
2023-01-28T17:58:58.833Z,4.94
2023-01-28T18:01:27.056Z,4.88
2023-01-28T18:03:55.766Z,4.85
2023-01-28T18:06:23.322Z,4.96
2023-01-28T18:08:50.876Z,4.98
2023-01-28T18:11:20.043Z,4.95
2023-01-28T18:13:47.353Z,4.96
2023-01-28T18:16:18.099Z,4.89
2023-01-28T18:18:46.344Z,4.88
2023-01-28T18:21:21.768Z,4.85
2023-01-28T18:23:52.340Z,4.69
2023-01-28T18:26:19.749Z,4.74
2023-01-28T18:28:48.383Z,4.70
2023-01-28T18:31:15.994Z,4.69
2023-01-28T18:33:43.530Z,4.65
2023-01-28T18:36:11.215Z,4.53
2023-01-28T18:38:39.823Z,4.45
2023-01-28T18:41:07.159Z,4.43
2023-01-28T18:43:35.531Z,4.49
2023-01-28T18:46:13.715Z,4.41
2023-01-28T18:48:41.201Z,4.31
2023-01-28T18:51:28.462Z,4.31
2023-01-28T18:54:03.095Z,4.22
2023-01-28T18:56:31.730Z,4.06
2023-01-28T18:59:00.977Z,4.12
2023-01-28T19:01:29.468Z,3.99
2023-01-28T19:03:58.029Z,3.99
2023-01-28T19:06:27.581Z,3.99
2023-01-28T19:09:00.831Z,3.95
2023-01-28T19:11:30.078Z,3.93
2023-01-28T19:13:57.831Z,3.94
2023-01-28T19:16:25.705Z,3.91
2023-01-28T19:19:00.558Z,3.94
2023-01-28T19:21:29.946Z,3.89
2023-01-28T19:24:03.566Z,3.76
2023-01-28T19:26:31.419Z,3.75
2023-01-28T19:28:59.449Z,3.63
2023-01-28T19:31:29.125Z,3.61
2023-01-28T19:34:00.039Z,3.60
2023-01-28T19:36:30.272Z,3.48
2023-01-28T19:39:03.133Z,3.58
2023-01-28T19:41:30.927Z,3.55
2023-01-28T19:43:58.884Z,3.48
2023-01-28T19:46:26.908Z,3.45
2023-01-28T19:48:54.895Z,3.45
2023-01-28T19:51:22.832Z,3.50
2023-01-28T19:53:51.987Z,3.40
2023-01-28T19:56:21.143Z,3.18
2023-01-28T19:58:48.884Z,3.31
2023-01-28T20:01:18.279Z,3.28
2023-01-28T20:03:46.023Z,3.32
2023-01-28T20:06:15.976Z,3.39
2023-01-28T20:08:44.219Z,3.35
2023-01-28T20:11:16.046Z,3.44
2023-01-28T20:13:44.353Z,3.44
2023-01-28T20:16:29.247Z,3.45
2023-01-28T20:18:59.630Z,3.45
2023-01-28T20:21:27.777Z,3.38
2023-01-28T20:23:57.335Z,3.37
2023-01-28T20:26:28.290Z,3.39
2023-01-28T20:28:55.765Z,3.42
2023-01-28T20:31:23.209Z,3.32
2023-01-28T20:33:50.603Z,3.26
2023-01-28T20:36:17.989Z,3.26
2023-01-28T20:38:47.299Z,3.23
2023-01-28T20:41:17.080Z,3.19
2023-01-28T20:43:45.416Z,3.19
2023-01-28T20:46:13.864Z,3.17
2023-01-28T20:48:41.398Z,3.19
2023-01-28T20:51:11.601Z,3.18
2023-01-28T20:53:39.961Z,3.10
2023-01-28T20:56:09.192Z,3.19
2023-01-28T20:58:36.759Z,3.14
2023-01-28T21:01:04.610Z,3.20
2023-01-28T21:03:32.742Z,3.18
2023-01-28T21:06:00.815Z,3.11
2023-01-28T21:08:28.177Z,2.94
2023-01-28T21:10:56.242Z,2.97
2023-01-28T21:13:23.615Z,3.00
2023-01-28T21:15:53.017Z,2.95
2023-01-28T21:18:20.726Z,2.97
2023-01-28T21:20:48.677Z,2.93
2023-01-28T21:23:16.215Z,2.71
2023-01-28T21:25:46.730Z,2.72
2023-01-28T21:28:14.216Z,2.79
2023-01-28T21:30:42.298Z,2.84
2023-01-28T21:33:09.936Z,2.89
2023-01-28T21:35:42.181Z,2.89
2023-01-28T21:38:10.692Z,2.88
2023-01-28T21:40:38.817Z,2.94
2023-01-28T21:43:06.160Z,3.01
2023-01-28T21:45:33.483Z,2.97
2023-01-28T21:48:00.787Z,2.81
2023-01-28T21:50:28.122Z,2.84
2023-01-28T21:52:55.491Z,2.80
2023-01-28T21:55:22.765Z,2.84
2023-01-28T21:58:10.066Z,2.83
2023-01-28T22:00:37.735Z,2.84
2023-01-28T22:03:05.147Z,2.80
2023-01-28T22:05:32.480Z,2.76
2023-01-28T22:07:59.800Z,2.75
2023-01-28T22:10:27.080Z,2.72
2023-01-28T22:12:54.407Z,2.72
2023-01-28T22:15:21.715Z,2.71
2023-01-28T22:17:49.121Z,2.64
2023-01-28T22:20:16.895Z,2.64
2023-01-28T22:22:44.440Z,2.64
2023-01-28T22:25:11.727Z,2.72
2023-01-28T22:27:39.026Z,2.69
2023-01-28T22:30:07.021Z,2.72
2023-01-28T22:32:34.523Z,2.70
2023-01-28T22:35:02.991Z,2.68
2023-01-28T22:37:30.395Z,2.77
2023-01-28T22:39:57.663Z,2.74
2023-01-28T22:42:24.987Z,2.73
2023-01-28T22:44:52.295Z,2.71
2023-01-28T22:47:19.647Z,2.70
2023-01-28T22:49:46.941Z,2.70
2023-01-28T22:52:14.345Z,2.66
2023-01-28T22:54:41.687Z,2.69
2023-01-28T22:57:09.133Z,2.62
2023-01-28T22:59:36.522Z,2.65
2023-01-28T23:02:03.966Z,2.58
2023-01-28T23:04:31.293Z,2.58
2023-01-28T23:06:58.699Z,2.62
2023-01-28T23:09:26.362Z,2.57
2023-01-28T23:11:53.743Z,2.62
2023-01-28T23:14:39.668Z,2.67
2023-01-28T23:17:27.657Z,2.65
2023-01-28T23:20:13.853Z,2.68
2023-01-28T23:22:59.740Z,2.69
2023-01-28T23:25:27.113Z,2.66
2023-01-28T23:27:54.467Z,2.61
2023-01-28T23:30:25.281Z,2.53
2023-01-28T23:32:56.591Z,2.41
2023-01-28T23:35:25.980Z,2.35
2023-01-28T23:37:54.375Z,2.27
2023-01-28T23:40:24.596Z,2.26
2023-01-28T23:42:52.578Z,2.22
2023-01-28T23:45:20.530Z,2.22
2023-01-28T23:47:48.730Z,2.20
2023-01-28T23:50:16.642Z,2.22
2023-01-28T23:52:44.275Z,2.19
2023-01-28T23:55:11.607Z,2.23
2023-01-28T23:57:38.968Z,2.18
